createdAt,value
2023-05-14T00:00:29.669Z,15.00
2023-05-14T00:02:56.723Z,15.00
2023-05-14T00:05:23.832Z,14.90
2023-05-14T00:07:50.684Z,15.00
2023-05-14T00:10:19.078Z,14.90
2023-05-14T00:12:46.106Z,14.90
2023-05-14T00:15:12.984Z,14.90
2023-05-14T00:17:39.834Z,14.90
2023-05-14T00:20:07.367Z,14.90
2023-05-14T00:22:35.016Z,14.90
2023-05-14T00:25:01.885Z,14.90
2023-05-14T00:27:28.692Z,14.90
2023-05-14T00:29:55.871Z,14.90
2023-05-14T00:32:24.443Z,14.90
2023-05-14T00:34:51.366Z,15.00
2023-05-14T00:37:18.285Z,15.00
2023-05-14T00:39:45.447Z,15.00
2023-05-14T00:42:12.401Z,15.00
2023-05-14T00:44:39.198Z,15.00
2023-05-14T00:47:06.949Z,15.00
2023-05-14T00:49:35.137Z,15.00
2023-05-14T00:52:02.236Z,15.00
2023-05-14T00:54:30.931Z,15.00
2023-05-14T00:56:58.618Z,15.00
2023-05-14T00:59:26.174Z,14.90
2023-05-14T01:01:53.310Z,14.90
2023-05-14T01:04:20.448Z,14.90
2023-05-14T01:07:05.529Z,15.00
2023-05-14T01:10:01.241Z,14.90
2023-05-14T01:12:39.850Z,14.90
2023-05-14T01:15:15.290Z,14.90
2023-05-14T01:17:54.423Z,14.90
2023-05-14T01:20:22.532Z,14.90
2023-05-14T01:22:49.954Z,14.90
2023-05-14T01:25:16.908Z,14.90
2023-05-14T01:28:28.159Z,14.90
2023-05-14T01:31:07.975Z,14.80
2023-05-14T01:33:37.013Z,14.90
2023-05-14T01:36:05.193Z,14.90
2023-05-14T01:38:34.212Z,14.90
2023-05-14T01:41:02.069Z,14.80
2023-05-14T01:43:29.959Z,14.80
2023-05-14T01:45:56.865Z,14.80
2023-05-14T01:48:23.784Z,14.80
2023-05-14T01:50:50.761Z,14.80
2023-05-14T01:53:17.582Z,14.80
2023-05-14T01:55:44.458Z,14.80
2023-05-14T01:58:11.413Z,14.80
2023-05-14T02:00:38.445Z,14.80
2023-05-14T02:03:05.424Z,14.80
2023-05-14T02:05:32.327Z,14.70
2023-05-14T02:07:59.172Z,14.70
2023-05-14T02:10:26.159Z,14.70
2023-05-14T02:12:53.104Z,14.70
2023-05-14T02:15:19.996Z,14.70
2023-05-14T02:17:46.869Z,14.70
2023-05-14T02:20:14.004Z,14.70
2023-05-14T02:22:45.442Z,14.60
2023-05-14T02:25:12.552Z,14.70
2023-05-14T02:27:39.363Z,14.60
2023-05-14T02:30:07.055Z,14.60
2023-05-14T02:32:34.084Z,14.60
2023-05-14T02:35:01.118Z,14.60
2023-05-14T02:37:27.984Z,14.60
2023-05-14T02:39:54.933Z,14.50
2023-05-14T02:42:21.918Z,14.50
2023-05-14T02:44:48.895Z,14.60
2023-05-14T02:47:15.725Z,14.50
2023-05-14T02:49:42.561Z,14.50
2023-05-14T02:52:09.403Z,14.50
2023-05-14T02:54:36.276Z,14.50
2023-05-14T02:57:03.334Z,14.50
2023-05-14T02:59:31.389Z,14.50
2023-05-14T03:01:58.736Z,14.50
2023-05-14T03:04:26.051Z,14.40
2023-05-14T03:06:52.975Z,14.40
2023-05-14T03:09:20.144Z,14.40
2023-05-14T03:11:47.140Z,14.40
2023-05-14T03:14:14.078Z,14.40
2023-05-14T03:16:42.283Z,14.40
2023-05-14T03:19:09.983Z,14.40
2023-05-14T03:21:37.088Z,14.40
2023-05-14T03:24:04.134Z,14.40
2023-05-14T03:26:31.040Z,14.40
2023-05-14T03:28:57.890Z,14.30
2023-05-14T03:31:24.939Z,14.30
2023-05-14T03:33:52.190Z,14.30
2023-05-14T03:36:19.015Z,14.30
2023-05-14T03:38:45.799Z,14.30
2023-05-14T03:41:12.574Z,14.30
2023-05-14T03:43:39.350Z,14.30
2023-05-14T03:46:06.186Z,14.30
2023-05-14T03:48:33.057Z,14.30
2023-05-14T03:50:59.983Z,14.30
2023-05-14T03:53:26.841Z,14.20
2023-05-14T03:55:53.907Z,14.20
2023-05-14T03:58:20.746Z,14.30
2023-05-14T04:00:47.702Z,14.30
2023-05-14T04:03:14.811Z,14.30
2023-05-14T04:05:41.743Z,14.20
2023-05-14T04:08:08.594Z,14.20
2023-05-14T04:10:35.539Z,14.20
2023-05-14T04:13:02.351Z,14.20
2023-05-14T04:15:29.190Z,14.30
2023-05-14T04:17:56.066Z,14.20
2023-05-14T04:20:23.100Z,14.20
2023-05-14T04:22:50.165Z,14.30
2023-05-14T04:25:18.471Z,14.30
2023-05-14T04:27:45.515Z,14.30
2023-05-14T04:30:12.813Z,14.30
2023-05-14T04:32:40.016Z,14.30
2023-05-14T04:35:09.147Z,14.30
2023-05-14T04:37:36.132Z,14.30
2023-05-14T04:40:05.739Z,14.30
2023-05-14T04:45:13.653Z,14.30
2023-05-14T04:47:41.686Z,14.30
2023-05-14T04:50:09.800Z,14.30
2023-05-14T04:52:36.597Z,14.20
2023-05-14T04:55:03.711Z,14.30
2023-05-14T04:57:30.657Z,14.20
2023-05-14T04:59:57.539Z,14.20
2023-05-14T05:02:24.432Z,14.30
2023-05-14T05:04:51.428Z,14.30
2023-05-14T05:07:18.326Z,14.30
2023-05-14T05:09:45.189Z,14.20
2023-05-14T05:12:12.081Z,14.30
2023-05-14T05:14:38.926Z,14.30
2023-05-14T05:17:05.753Z,14.30
2023-05-14T05:19:43.122Z,14.30
2023-05-14T05:22:11.535Z,14.30
2023-05-14T05:24:38.343Z,14.30
2023-05-14T05:27:08.671Z,14.30
2023-05-14T05:29:35.602Z,14.30
2023-05-14T05:32:02.586Z,14.30
2023-05-14T05:34:29.474Z,14.30
2023-05-14T05:36:56.354Z,14.30
2023-05-14T05:39:23.215Z,14.30
2023-05-14T05:41:50.030Z,14.30
2023-05-14T05:44:16.860Z,14.30
2023-05-14T05:46:43.824Z,14.40
2023-05-14T05:49:10.683Z,14.40
2023-05-14T05:51:37.514Z,14.40
2023-05-14T05:54:04.403Z,14.40
2023-05-14T05:56:31.262Z,14.40
2023-05-14T05:58:58.032Z,14.50
2023-05-14T06:01:24.884Z,14.50
2023-05-14T06:03:51.739Z,14.50
2023-05-14T06:06:18.546Z,14.50
2023-05-14T06:08:45.466Z,14.60
2023-05-14T06:11:12.676Z,14.50
2023-05-14T06:13:39.510Z,14.50
2023-05-14T06:16:06.685Z,14.60
2023-05-14T06:18:33.630Z,14.60
2023-05-14T06:21:00.529Z,14.60
2023-05-14T06:23:27.444Z,14.70
2023-05-14T06:25:54.293Z,14.70
2023-05-14T06:28:21.158Z,14.80
2023-05-14T06:30:50.615Z,14.80
2023-05-14T06:33:19.345Z,14.90
2023-05-14T06:35:56.820Z,14.90
2023-05-14T06:38:23.805Z,15.00
2023-05-14T06:40:50.706Z,15.00
2023-05-14T06:43:17.540Z,15.00
2023-05-14T06:45:44.470Z,15.00
2023-05-14T06:48:11.349Z,15.00
2023-05-14T06:50:38.236Z,15.10
2023-05-14T06:53:05.067Z,15.10
2023-05-14T06:55:32.021Z,15.00
2023-05-14T06:57:58.834Z,15.10
2023-05-14T07:00:26.113Z,15.10
2023-05-14T07:02:54.512Z,15.10
2023-05-14T07:05:21.450Z,15.10
2023-05-14T07:07:48.354Z,15.10
2023-05-14T07:10:15.214Z,15.10
2023-05-14T07:12:42.146Z,15.20
2023-05-14T07:15:09.751Z,15.20
2023-05-14T07:17:37.765Z,15.30
2023-05-14T07:20:05.755Z,15.30
2023-05-14T07:22:32.643Z,15.40
2023-05-14T07:24:59.477Z,15.40
2023-05-14T07:27:26.328Z,15.40
2023-05-14T07:29:53.122Z,15.50
2023-05-14T07:32:19.928Z,15.50
2023-05-14T07:34:46.726Z,15.50
2023-05-14T07:37:13.603Z,15.50
2023-05-14T07:39:41.714Z,15.60
2023-05-14T07:42:09.099Z,15.60
2023-05-14T07:44:35.990Z,15.70
2023-05-14T07:47:04.222Z,15.70
2023-05-14T07:49:31.089Z,15.80
2023-05-14T07:51:58.573Z,15.90
2023-05-14T07:54:25.632Z,16.00
2023-05-14T07:56:52.561Z,16.00
2023-05-14T07:59:19.455Z,16.10
2023-05-14T08:01:46.925Z,16.20
2023-05-14T08:04:16.195Z,16.30
2023-05-14T08:06:43.239Z,16.40
2023-05-14T08:09:10.063Z,16.50
2023-05-14T08:11:36.942Z,16.50
2023-05-14T08:14:03.753Z,16.60
2023-05-14T08:16:30.664Z,16.60
2023-05-14T08:18:57.597Z,16.60
2023-05-14T08:21:24.431Z,16.50
2023-05-14T08:23:51.418Z,16.60
2023-05-14T08:26:18.310Z,16.50
2023-05-14T08:28:45.248Z,16.50
2023-05-14T08:31:14.490Z,16.50
2023-05-14T08:33:41.483Z,16.50
2023-05-14T08:36:08.717Z,16.50
2023-05-14T08:38:35.723Z,16.50
2023-05-14T08:41:05.934Z,16.50
2023-05-14T08:44:10.246Z,16.50
2023-05-14T08:46:39.503Z,16.40
2023-05-14T08:49:40.737Z,16.50
2023-05-14T08:52:09.438Z,16.50
2023-05-14T08:54:36.643Z,16.40
2023-05-14T08:57:05.218Z,16.50
2023-05-14T08:59:32.136Z,16.50
2023-05-14T09:02:04.370Z,16.50
2023-05-14T09:04:32.438Z,16.50
2023-05-14T09:07:02.661Z,16.60
2023-05-14T09:09:29.880Z,16.60
2023-05-14T09:11:56.752Z,16.60
2023-05-14T09:14:24.121Z,16.60
2023-05-14T09:16:51.882Z,16.60
2023-05-14T09:19:20.227Z,16.60
2023-05-14T09:21:49.272Z,16.60
2023-05-14T09:24:25.031Z,16.60
2023-05-14T09:26:54.928Z,16.60
2023-05-14T09:29:23.825Z,16.60
2023-05-14T09:31:52.366Z,16.60
2023-05-14T09:34:27.109Z,16.60
2023-05-14T09:37:02.057Z,16.60
2023-05-14T09:39:29.958Z,16.50
2023-05-14T09:41:57.178Z,16.50
2023-05-14T09:44:25.431Z,16.50
2023-05-14T09:46:53.318Z,16.50
2023-05-14T09:49:20.916Z,16.40
2023-05-14T09:51:49.815Z,16.40
2023-05-14T09:54:16.851Z,16.40
2023-05-14T09:56:44.523Z,16.40
2023-05-14T09:59:11.587Z,16.40
2023-05-14T10:01:38.742Z,16.40
2023-05-14T10:04:09.277Z,16.40
2023-05-14T10:06:42.176Z,16.40
2023-05-14T10:09:14.125Z,16.40
2023-05-14T10:11:45.498Z,16.30
2023-05-14T10:14:35.874Z,16.30
2023-05-14T10:17:06.389Z,16.30
2023-05-14T10:19:37.229Z,16.30
2023-05-14T10:22:06.970Z,16.30
2023-05-14T10:24:35.720Z,16.30
2023-05-14T10:27:02.927Z,16.30
2023-05-14T10:29:37.980Z,16.30
2023-05-14T10:32:09.806Z,16.30
2023-05-14T10:34:46.127Z,16.30
2023-05-14T10:37:25.942Z,16.30
2023-05-14T10:40:02.785Z,16.30
2023-05-14T10:42:36.058Z,16.40
2023-05-14T10:45:08.262Z,16.40
2023-05-14T10:47:41.971Z,16.40
2023-05-14T10:50:12.750Z,16.50
2023-05-14T10:52:43.395Z,16.50
2023-05-14T10:55:14.843Z,16.60
2023-05-14T10:57:44.996Z,16.60
2023-05-14T11:00:14.469Z,16.60
2023-05-14T11:02:44.164Z,16.70
2023-05-14T11:05:17.793Z,16.70
2023-05-14T11:07:48.711Z,16.70
2023-05-14T11:10:21.363Z,16.70
2023-05-14T11:12:51.042Z,16.70
2023-05-14T11:15:23.480Z,16.70
2023-05-14T11:17:52.241Z,16.70
2023-05-14T11:20:21.114Z,16.90
2023-05-14T11:22:51.456Z,17.00
2023-05-14T11:25:18.930Z,17.20
2023-05-14T11:27:47.605Z,17.40
2023-05-14T11:30:20.275Z,17.70
2023-05-14T11:32:50.152Z,18.00
2023-05-14T11:35:18.658Z,18.40
2023-05-14T11:37:52.932Z,18.80
2023-05-14T11:40:20.542Z,19.10
2023-05-14T11:42:47.423Z,19.50
2023-05-14T11:45:26.425Z,19.80
2023-05-14T11:47:56.814Z,20.20
2023-05-14T11:50:24.194Z,20.40
2023-05-14T11:52:51.231Z,20.70
2023-05-14T11:55:18.359Z,20.90
2023-05-14T11:57:45.546Z,21.10
2023-05-14T12:00:21.661Z,21.20
2023-05-14T12:02:50.061Z,21.40
2023-05-14T12:05:17.260Z,21.60
2023-05-14T12:07:48.010Z,21.60
2023-05-14T12:10:15.515Z,21.80
2023-05-14T12:12:48.141Z,21.80
2023-05-14T12:15:17.328Z,21.90
2023-05-14T12:17:51.797Z,22.00
2023-05-14T12:20:19.060Z,22.00
2023-05-14T12:22:45.881Z,22.10
2023-05-14T12:25:14.068Z,22.10
2023-05-14T12:27:44.690Z,22.20
2023-05-14T12:30:21.158Z,22.30
2023-05-14T12:32:51.730Z,22.40
2023-05-14T12:35:19.116Z,22.40
2023-05-14T12:37:46.274Z,22.50
2023-05-14T12:40:13.426Z,22.50
2023-05-14T12:42:40.356Z,22.40
2023-05-14T12:45:08.665Z,22.40
2023-05-14T12:47:36.905Z,22.30
2023-05-14T12:50:04.793Z,22.10
2023-05-14T12:55:01.767Z,21.90
2023-05-14T12:57:30.194Z,21.70
2023-05-14T12:59:57.913Z,21.70
2023-05-14T13:02:24.808Z,21.60
2023-05-14T13:04:51.641Z,21.50
2023-05-14T13:07:18.672Z,21.40
2023-05-14T13:09:45.512Z,21.40
2023-05-14T13:12:12.378Z,21.30
2023-05-14T13:14:39.145Z,21.30
2023-05-14T13:17:08.041Z,21.30
2023-05-14T13:19:35.261Z,21.30
2023-05-14T13:22:02.294Z,21.30
2023-05-14T13:24:29.205Z,21.40
2023-05-14T13:26:56.074Z,21.50
2023-05-14T13:29:24.345Z,21.60
2023-05-14T13:31:51.206Z,21.60
2023-05-14T13:34:18.232Z,21.80
2023-05-14T13:36:45.063Z,21.90
2023-05-14T13:39:13.557Z,22.10
2023-05-14T13:41:41.310Z,22.30
2023-05-14T13:44:08.273Z,22.50
2023-05-14T13:46:35.381Z,22.70
2023-05-14T13:49:02.320Z,22.90
2023-05-14T13:51:29.177Z,23.20
2023-05-14T13:53:56.238Z,23.60
2023-05-14T13:56:23.405Z,24.00
2023-05-14T13:58:50.346Z,24.50
2023-05-14T14:01:17.292Z,25.00
2023-05-14T14:03:44.176Z,25.40
2023-05-14T14:06:11.065Z,25.90
2023-05-14T14:08:37.919Z,26.20
2023-05-14T14:11:05.182Z,26.50
2023-05-14T14:13:32.132Z,26.90
2023-05-14T14:15:59.007Z,27.40
2023-05-14T14:18:27.220Z,27.80
2023-05-14T14:20:54.131Z,28.30
2023-05-14T14:23:21.344Z,28.80
2023-05-14T14:25:48.271Z,29.30
2023-05-14T14:28:15.263Z,29.80
2023-05-14T14:30:43.695Z,30.20
2023-05-14T14:33:11.315Z,30.70
2023-05-14T14:35:38.531Z,31.10
2023-05-14T14:38:05.431Z,31.30
2023-05-14T14:40:34.169Z,31.40
2023-05-14T14:43:02.031Z,31.50
2023-05-14T14:45:28.855Z,31.40
2023-05-14T14:48:34.042Z,31.20
2023-05-14T14:51:01.579Z,30.80
2023-05-14T14:53:28.576Z,30.60
2023-05-14T14:55:56.010Z,30.60
2023-05-14T14:58:23.809Z,30.70
2023-05-14T15:00:54.850Z,30.90
2023-05-14T15:03:22.735Z,31.20
2023-05-14T15:05:51.155Z,31.50
2023-05-14T15:08:18.263Z,31.80
2023-05-14T15:10:45.781Z,32.20
2023-05-14T15:13:13.030Z,32.70
2023-05-14T15:15:39.956Z,32.80
2023-05-14T15:18:10.509Z,32.90
2023-05-14T15:20:37.947Z,33.10
2023-05-14T15:23:05.095Z,33.30
2023-05-14T15:25:32.015Z,33.50
2023-05-14T15:27:58.848Z,33.60
2023-05-14T15:30:25.812Z,33.80
2023-05-14T15:32:53.535Z,34.10
2023-05-14T15:35:20.711Z,34.20
2023-05-14T15:37:47.606Z,34.20
2023-05-14T15:40:14.488Z,34.00
2023-05-14T15:42:44.057Z,33.70
2023-05-14T15:45:13.155Z,33.30
2023-05-14T15:47:41.592Z,33.00
2023-05-14T15:50:09.391Z,32.60
2023-05-14T15:52:36.799Z,31.90
2023-05-14T15:55:06.026Z,31.10
2023-05-14T15:57:33.903Z,30.10
2023-05-14T16:00:00.741Z,29.20
2023-05-14T16:02:30.361Z,28.30
2023-05-14T16:04:57.411Z,27.30
2023-05-14T16:07:24.287Z,26.40
2023-05-14T16:09:51.823Z,25.60
2023-05-14T16:12:18.776Z,24.80
2023-05-14T16:14:45.819Z,24.10
2023-05-14T16:17:12.944Z,23.50
2023-05-14T16:19:40.395Z,22.90
2023-05-14T16:22:07.591Z,22.40
2023-05-14T16:24:40.445Z,21.90
2023-05-14T16:27:07.466Z,21.40
2023-05-14T16:29:34.388Z,20.90
2023-05-14T16:32:01.981Z,20.50
2023-05-14T16:34:29.049Z,20.20
2023-05-14T16:36:56.039Z,19.80
2023-05-14T16:39:22.947Z,19.50
2023-05-14T16:41:50.309Z,19.20
2023-05-14T16:44:18.280Z,19.00
2023-05-14T16:46:45.248Z,18.80
2023-05-14T16:49:15.386Z,18.60
2023-05-14T16:51:43.861Z,18.30
2023-05-14T16:54:11.008Z,18.20
2023-05-14T16:56:38.104Z,18.00
2023-05-14T16:59:05.087Z,17.90
2023-05-14T17:01:37.745Z,17.70
2023-05-14T17:04:08.176Z,17.60
2023-05-14T17:06:36.524Z,17.40
2023-05-14T17:11:47.713Z,17.30
2023-05-14T17:14:23.438Z,17.20
2023-05-14T17:16:51.997Z,17.10
2023-05-14T17:19:18.903Z,16.90
2023-05-14T17:21:45.966Z,16.90
2023-05-14T17:24:12.900Z,16.80
2023-05-14T17:26:39.914Z,16.70
2023-05-14T17:29:06.887Z,16.70
2023-05-14T17:31:56.760Z,16.60
2023-05-14T17:34:24.241Z,16.50
2023-05-14T17:36:51.598Z,16.40
2023-05-14T17:39:18.628Z,16.20
2023-05-14T17:41:45.593Z,16.30
2023-05-14T17:44:13.259Z,16.30
2023-05-14T17:46:41.837Z,16.20
2023-05-14T17:51:49.633Z,16.20
2023-05-14T17:54:21.001Z,16.30
2023-05-14T17:56:50.968Z,16.20
2023-05-14T17:59:19.204Z,16.20
2023-05-14T18:01:46.645Z,16.10
2023-05-14T18:04:13.747Z,16.10
2023-05-14T18:06:41.098Z,16.10
2023-05-14T18:09:08.010Z,16.10
2023-05-14T18:11:35.642Z,16.10
2023-05-14T18:14:03.231Z,16.10
2023-05-14T18:16:30.854Z,16.10
2023-05-14T18:18:57.888Z,16.10
2023-05-14T18:21:24.822Z,16.10
2023-05-14T18:23:51.889Z,16.10
2023-05-14T18:26:19.013Z,16.10
2023-05-14T18:28:46.124Z,16.10
2023-05-14T18:31:13.464Z,16.10
2023-05-14T18:34:25.126Z,16.10
2023-05-14T18:36:52.429Z,16.10
2023-05-14T18:39:27.784Z,16.10
2023-05-14T18:41:56.553Z,16.10
2023-05-14T18:44:23.834Z,16.10
2023-05-14T18:46:50.910Z,16.10
2023-05-14T18:49:35.792Z,16.00
2023-05-14T18:52:09.679Z,16.10
2023-05-14T18:54:36.832Z,16.00
2023-05-14T18:57:04.054Z,16.00
2023-05-14T18:59:32.021Z,16.00
2023-05-14T19:02:14.576Z,16.00
2023-05-14T19:04:51.775Z,15.90
2023-05-14T19:07:23.400Z,15.90
2023-05-14T19:09:57.520Z,15.90
2023-05-14T19:12:33.725Z,15.90
2023-05-14T19:15:02.713Z,15.80
2023-05-14T19:17:36.686Z,15.80
2023-05-14T19:20:08.959Z,15.80
2023-05-14T19:22:35.898Z,15.80
2023-05-14T19:25:05.205Z,15.80
2023-05-14T19:27:50.606Z,15.80
2023-05-14T19:30:19.970Z,15.80
2023-05-14T19:32:46.969Z,15.80
2023-05-14T19:35:14.012Z,15.80
2023-05-14T19:37:41.044Z,15.70
2023-05-14T19:40:12.857Z,15.70
2023-05-14T19:42:39.897Z,15.70
2023-05-14T19:45:07.346Z,15.70
2023-05-14T19:47:34.775Z,15.70
2023-05-14T19:50:03.361Z,15.70
2023-05-14T19:52:30.226Z,15.60
2023-05-14T19:54:57.094Z,15.60
2023-05-14T19:57:39.036Z,15.60
2023-05-14T20:00:09.010Z,15.60
2023-05-14T20:02:36.117Z,15.60
2023-05-14T20:05:03.582Z,15.60
2023-05-14T20:07:30.581Z,15.60
2023-05-14T20:09:57.465Z,15.60
2023-05-14T20:12:24.420Z,15.60
2023-05-14T20:14:51.761Z,15.60
2023-05-14T20:17:18.885Z,15.60
2023-05-14T20:19:46.390Z,15.50
2023-05-14T20:22:13.543Z,15.50
2023-05-14T20:24:41.098Z,15.50
2023-05-14T20:27:08.172Z,15.50
2023-05-14T20:29:34.997Z,15.50
2023-05-14T20:32:01.825Z,15.50
2023-05-14T20:34:28.689Z,15.50
2023-05-14T20:36:56.033Z,15.50
2023-05-14T20:39:31.658Z,15.50
2023-05-14T20:41:58.532Z,15.50
2023-05-14T20:44:25.568Z,15.50
2023-05-14T20:46:52.755Z,15.50
2023-05-14T20:49:19.732Z,15.50
2023-05-14T20:51:46.607Z,15.50
2023-05-14T20:54:13.393Z,15.50
2023-05-14T20:56:40.280Z,15.50
2023-05-14T20:59:07.105Z,15.50
2023-05-14T21:01:33.916Z,15.50
2023-05-14T21:04:01.004Z,15.40
2023-05-14T21:06:28.241Z,15.40
2023-05-14T21:08:55.068Z,15.50
2023-05-14T21:11:23.013Z,15.50
2023-05-14T21:13:52.685Z,15.40
2023-05-14T21:16:20.245Z,15.40
2023-05-14T21:18:47.225Z,15.40
2023-05-14T21:21:14.120Z,15.40
2023-05-14T21:23:40.979Z,15.40
2023-05-14T21:26:07.899Z,15.40
2023-05-14T21:28:34.812Z,15.30
2023-05-14T21:31:01.698Z,15.40
2023-05-14T21:33:29.002Z,15.30
2023-05-14T21:35:56.141Z,15.30
2023-05-14T21:38:23.130Z,15.30
2023-05-14T21:40:49.995Z,15.30
2023-05-14T21:43:17.001Z,15.30
2023-05-14T21:45:46.547Z,15.30
2023-05-14T21:48:13.714Z,15.30
2023-05-14T21:50:40.606Z,15.30
2023-05-14T21:53:07.440Z,15.30
2023-05-14T21:55:34.860Z,15.20
2023-05-14T21:58:02.803Z,15.20
2023-05-14T22:00:29.676Z,15.20
2023-05-14T22:02:56.536Z,15.20
2023-05-14T22:05:23.749Z,15.20
2023-05-14T22:07:51.970Z,15.20
2023-05-14T22:10:19.337Z,15.10
2023-05-14T22:12:46.440Z,15.10
2023-05-14T22:15:13.376Z,15.10
2023-05-14T22:17:40.383Z,15.10
2023-05-14T22:20:09.722Z,15.10
2023-05-14T22:22:37.232Z,15.10
2023-05-14T22:25:04.726Z,15.10
2023-05-14T22:27:32.186Z,15.00
2023-05-14T22:29:59.228Z,15.00
2023-05-14T22:32:26.479Z,15.00
2023-05-14T22:34:53.400Z,15.00
2023-05-14T22:37:20.280Z,15.00
2023-05-14T22:39:47.159Z,14.90
2023-05-14T22:42:14.063Z,14.90
2023-05-14T22:44:40.896Z,14.90
2023-05-14T22:47:07.818Z,14.90
2023-05-14T22:49:34.687Z,14.90
2023-05-14T22:52:01.574Z,14.90
2023-05-14T22:54:28.436Z,14.80
2023-05-14T22:56:55.481Z,14.80
2023-05-14T22:59:23.725Z,14.80
2023-05-14T23:01:51.118Z,14.80
2023-05-14T23:04:18.094Z,14.70
2023-05-14T23:06:45.447Z,14.70
2023-05-14T23:09:12.316Z,14.60
2023-05-14T23:11:39.129Z,14.70
2023-05-14T23:14:05.982Z,14.70
2023-05-14T23:16:32.910Z,14.70
2023-05-14T23:18:59.890Z,14.60
2023-05-14T23:21:26.840Z,14.60
2023-05-14T23:23:53.722Z,14.60
2023-05-14T23:26:21.631Z,14.60
2023-05-14T23:28:48.556Z,14.60
2023-05-14T23:31:15.618Z,14.60
2023-05-14T23:33:44.600Z,14.60
2023-05-14T23:36:11.541Z,14.60
2023-05-14T23:38:38.574Z,14.60
2023-05-14T23:41:05.437Z,14.60
2023-05-14T23:43:33.765Z,14.60
2023-05-14T23:46:01.445Z,14.60
2023-05-14T23:48:28.444Z,14.50
2023-05-14T23:50:55.427Z,14.50
2023-05-14T23:53:23.257Z,14.60
2023-05-14T23:55:50.377Z,14.50
2023-05-14T23:58:17.410Z,14.60
